sensor_id;sensor_type;location;lat;lon;timestamp;P1;durP1;ratioP1;P2;durP2;ratioP2
69627;SDS011;56850;51.984;5.088;2023-04-03T00:00:49;5.45;;;2.00;;
69627;SDS011;56850;51.984;5.088;2023-04-03T00:03:17;3.05;;;1.80;;
69627;SDS011;56850;51.984;5.088;2023-04-03T00:05:44;4.72;;;1.70;;
69627;SDS011;56850;51.984;5.088;2023-04-03T00:08:12;3.85;;;1.90;;
69627;SDS011;56850;51.984;5.088;2023-04-03T00:10:40;3.20;;;1.97;;
69627;SDS011;56850;51.984;5.088;2023-04-03T00:13:07;2.88;;;1.77;;
69627;SDS011;56850;51.984;5.088;2023-04-03T00:15:35;3.05;;;1.83;;
69627;SDS011;56850;51.984;5.088;2023-04-03T00:18:03;4.13;;;1.70;;
69627;SDS011;56850;51.984;5.088;2023-04-03T00:20:31;4.72;;;1.80;;
69627;SDS011;56850;51.984;5.088;2023-04-03T00:22:58;3.20;;;1.60;;
69627;SDS011;56850;51.984;5.088;2023-04-03T00:25:26;2.55;;;1.60;;
69627;SDS011;56850;51.984;5.088;2023-04-03T00:27:54;2.50;;;1.73;;
69627;SDS011;56850;51.984;5.088;2023-04-03T00:30:22;2.95;;;1.88;;
69627;SDS011;56850;51.984;5.088;2023-04-03T00:32:50;2.72;;;1.80;;
69627;SDS011;56850;51.984;5.088;2023-04-03T00:35:19;2.53;;;1.40;;
69627;SDS011;56850;51.984;5.088;2023-04-03T00:37:47;3.10;;;1.77;;
69627;SDS011;56850;51.984;5.088;2023-04-03T00:40:14;3.22;;;1.80;;
69627;SDS011;56850;51.984;5.088;2023-04-03T00:42:42;2.13;;;1.50;;
69627;SDS011;56850;51.984;5.088;2023-04-03T00:47:39;3.67;;;1.70;;
69627;SDS011;56850;51.984;5.088;2023-04-03T00:50:07;3.90;;;1.48;;
69627;SDS011;56850;51.984;5.088;2023-04-03T00:52:34;3.63;;;2.00;;
69627;SDS011;56850;51.984;5.088;2023-04-03T00:55:03;2.33;;;1.80;;
69627;SDS011;56850;51.984;5.088;2023-04-03T00:57:33;3.58;;;1.50;;
69627;SDS011;56850;51.984;5.088;2023-04-03T01:00:04;2.50;;;1.60;;
69627;SDS011;56850;51.984;5.088;2023-04-03T01:02:35;2.40;;;1.60;;
69627;SDS011;56850;51.984;5.088;2023-04-03T01:05:03;3.20;;;1.88;;
69627;SDS011;56850;51.984;5.088;2023-04-03T01:07:31;3.63;;;1.88;;
69627;SDS011;56850;51.984;5.088;2023-04-03T01:10:01;2.33;;;1.83;;
69627;SDS011;56850;51.984;5.088;2023-04-03T01:12:33;6.33;;;1.80;;
69627;SDS011;56850;51.984;5.088;2023-04-03T01:15:10;2.20;;;1.58;;
69627;SDS011;56850;51.984;5.088;2023-04-03T01:17:46;4.13;;;1.83;;
69627;SDS011;56850;51.984;5.088;2023-04-03T01:28:18;2.78;;;1.60;;
69627;SDS011;56850;51.984;5.088;2023-04-03T01:31:06;2.50;;;1.70;;
69627;SDS011;56850;51.984;5.088;2023-04-03T01:33:35;2.78;;;1.73;;
69627;SDS011;56850;51.984;5.088;2023-04-03T01:36:02;3.42;;;1.88;;
69627;SDS011;56850;51.984;5.088;2023-04-03T01:38:30;3.00;;;1.77;;
69627;SDS011;56850;51.984;5.088;2023-04-03T01:40:57;2.97;;;1.70;;
69627;SDS011;56850;51.984;5.088;2023-04-03T01:43:24;6.35;;;1.88;;
69627;SDS011;56850;51.984;5.088;2023-04-03T01:45:51;3.13;;;1.88;;
69627;SDS011;56850;51.984;5.088;2023-04-03T01:48:20;3.05;;;1.60;;
69627;SDS011;56850;51.984;5.088;2023-04-03T01:50:47;2.67;;;1.77;;
69627;SDS011;56850;51.984;5.088;2023-04-03T01:53:14;2.88;;;1.70;;
69627;SDS011;56850;51.984;5.088;2023-04-03T01:55:41;3.70;;;1.63;;
69627;SDS011;56850;51.984;5.088;2023-04-03T01:58:08;3.22;;;1.90;;
69627;SDS011;56850;51.984;5.088;2023-04-03T02:00:35;3.53;;;1.90;;
69627;SDS011;56850;51.984;5.088;2023-04-03T02:03:03;2.87;;;1.67;;
69627;SDS011;56850;51.984;5.088;2023-04-03T02:05:30;2.35;;;1.50;;
69627;SDS011;56850;51.984;5.088;2023-04-03T02:07:57;5.43;;;1.75;;
69627;SDS011;56850;51.984;5.088;2023-04-03T02:10:24;4.82;;;2.20;;
69627;SDS011;56850;51.984;5.088;2023-04-03T02:12:51;3.63;;;2.10;;
69627;SDS011;56850;51.984;5.088;2023-04-03T02:15:18;3.67;;;1.63;;
69627;SDS011;56850;51.984;5.088;2023-04-03T02:17:46;4.63;;;1.90;;
69627;SDS011;56850;51.984;5.088;2023-04-03T02:20:13;5.70;;;1.80;;
69627;SDS011;56850;51.984;5.088;2023-04-03T02:22:40;3.50;;;1.92;;
69627;SDS011;56850;51.984;5.088;2023-04-03T02:25:07;6.00;;;1.80;;
69627;SDS011;56850;51.984;5.088;2023-04-03T02:27:36;3.80;;;1.87;;
69627;SDS011;56850;51.984;5.088;2023-04-03T02:30:03;3.83;;;1.80;;
69627;SDS011;56850;51.984;5.088;2023-04-03T02:32:31;3.40;;;1.88;;
69627;SDS011;56850;51.984;5.088;2023-04-03T02:34:59;4.80;;;1.77;;
69627;SDS011;56850;51.984;5.088;2023-04-03T02:37:26;4.45;;;2.40;;
69627;SDS011;56850;51.984;5.088;2023-04-03T02:39:53;4.67;;;2.00;;
69627;SDS011;56850;51.984;5.088;2023-04-03T02:42:21;5.97;;;2.13;;
69627;SDS011;56850;51.984;5.088;2023-04-03T02:44:47;3.45;;;2.00;;
69627;SDS011;56850;51.984;5.088;2023-04-03T02:47:15;3.78;;;1.80;;
69627;SDS011;56850;51.984;5.088;2023-04-03T02:49:42;4.22;;;2.10;;
69627;SDS011;56850;51.984;5.088;2023-04-03T02:52:12;3.00;;;1.93;;
69627;SDS011;56850;51.984;5.088;2023-04-03T02:54:40;5.13;;;2.20;;
69627;SDS011;56850;51.984;5.088;2023-04-03T02:57:09;4.15;;;1.55;;
69627;SDS011;56850;51.984;5.088;2023-04-03T02:59:36;3.70;;;1.60;;
69627;SDS011;56850;51.984;5.088;2023-04-03T03:02:08;4.55;;;1.75;;
69627;SDS011;56850;51.984;5.088;2023-04-03T03:04:36;3.97;;;2.20;;
69627;SDS011;56850;51.984;5.088;2023-04-03T03:07:03;3.80;;;2.10;;
69627;SDS011;56850;51.984;5.088;2023-04-03T03:09:30;5.30;;;2.58;;
69627;SDS011;56850;51.984;5.088;2023-04-03T03:11:58;3.88;;;2.10;;
69627;SDS011;56850;51.984;5.088;2023-04-03T03:14:25;3.33;;;2.03;;
69627;SDS011;56850;51.984;5.088;2023-04-03T03:16:51;3.13;;;1.80;;
69627;SDS011;56850;51.984;5.088;2023-04-03T03:19:18;4.32;;;2.13;;
69627;SDS011;56850;51.984;5.088;2023-04-03T03:21:45;4.07;;;2.72;;
69627;SDS011;56850;51.984;5.088;2023-04-03T03:24:12;4.55;;;2.30;;
69627;SDS011;56850;51.984;5.088;2023-04-03T03:26:40;3.40;;;2.17;;
69627;SDS011;56850;51.984;5.088;2023-04-03T03:29:07;4.83;;;2.13;;
69627;SDS011;56850;51.984;5.088;2023-04-03T03:31:34;4.40;;;2.08;;
69627;SDS011;56850;51.984;5.088;2023-04-03T03:34:01;3.60;;;2.00;;
69627;SDS011;56850;51.984;5.088;2023-04-03T03:36:28;5.88;;;2.10;;
69627;SDS011;56850;51.984;5.088;2023-04-03T03:38:56;3.88;;;2.30;;
69627;SDS011;56850;51.984;5.088;2023-04-03T03:41:23;5.77;;;2.63;;
69627;SDS011;56850;51.984;5.088;2023-04-03T03:43:50;3.03;;;2.03;;
69627;SDS011;56850;51.984;5.088;2023-04-03T03:46:17;5.03;;;2.60;;
69627;SDS011;56850;51.984;5.088;2023-04-03T03:48:44;3.60;;;2.13;;
69627;SDS011;56850;51.984;5.088;2023-04-03T03:51:11;5.75;;;2.25;;
69627;SDS011;56850;51.984;5.088;2023-04-03T03:53:38;7.33;;;2.27;;
69627;SDS011;56850;51.984;5.088;2023-04-03T03:56:08;4.32;;;2.00;;
69627;SDS011;56850;51.984;5.088;2023-04-03T03:58:37;4.50;;;2.10;;
69627;SDS011;56850;51.984;5.088;2023-04-03T04:01:06;5.75;;;2.67;;
69627;SDS011;56850;51.984;5.088;2023-04-03T04:03:39;5.40;;;2.35;;
69627;SDS011;56850;51.984;5.088;2023-04-03T04:06:08;4.77;;;2.23;;
69627;SDS011;56850;51.984;5.088;2023-04-03T04:08:36;6.07;;;2.05;;
69627;SDS011;56850;51.984;5.088;2023-04-03T04:11:05;4.15;;;2.35;;
69627;SDS011;56850;51.984;5.088;2023-04-03T04:13:32;4.55;;;3.10;;
69627;SDS011;56850;51.984;5.088;2023-04-03T04:16:00;6.10;;;2.38;;
69627;SDS011;56850;51.984;5.088;2023-04-03T04:18:28;6.00;;;2.23;;
69627;SDS011;56850;51.984;5.088;2023-04-03T04:20:56;5.07;;;2.50;;
69627;SDS011;56850;51.984;5.088;2023-04-03T04:23:23;4.22;;;2.20;;
69627;SDS011;56850;51.984;5.088;2023-04-03T04:25:51;6.65;;;2.47;;
69627;SDS011;56850;51.984;5.088;2023-04-03T04:28:18;4.35;;;2.10;;
69627;SDS011;56850;51.984;5.088;2023-04-03T04:30:48;3.23;;;2.17;;
69627;SDS011;56850;51.984;5.088;2023-04-03T04:33:17;10.13;;;2.25;;
69627;SDS011;56850;51.984;5.088;2023-04-03T04:35:46;5.90;;;2.47;;
69627;SDS011;56850;51.984;5.088;2023-04-03T04:38:15;3.55;;;2.60;;
69627;SDS011;56850;51.984;5.088;2023-04-03T04:40:42;5.32;;;1.92;;
69627;SDS011;56850;51.984;5.088;2023-04-03T04:43:10;3.33;;;1.90;;
69627;SDS011;56850;51.984;5.088;2023-04-03T04:45:42;6.13;;;2.10;;
69627;SDS011;56850;51.984;5.088;2023-04-03T04:48:09;4.55;;;2.50;;
69627;SDS011;56850;51.984;5.088;2023-04-03T04:50:36;9.07;;;2.45;;
69627;SDS011;56850;51.984;5.088;2023-04-03T04:53:03;5.80;;;2.38;;
69627;SDS011;56850;51.984;5.088;2023-04-03T04:55:31;6.43;;;2.80;;
69627;SDS011;56850;51.984;5.088;2023-04-03T04:57:58;7.28;;;2.40;;
69627;SDS011;56850;51.984;5.088;2023-04-03T05:00:25;4.38;;;2.45;;
69627;SDS011;56850;51.984;5.088;2023-04-03T05:02:52;5.30;;;2.17;;
69627;SDS011;56850;51.984;5.088;2023-04-03T05:05:19;6.85;;;2.45;;
69627;SDS011;56850;51.984;5.088;2023-04-03T05:07:48;3.43;;;2.37;;
69627;SDS011;56850;51.984;5.088;2023-04-03T05:10:16;9.82;;;2.67;;
69627;SDS011;56850;51.984;5.088;2023-04-03T05:12:44;6.75;;;2.33;;
69627;SDS011;56850;51.984;5.088;2023-04-03T05:15:10;5.18;;;2.08;;
69627;SDS011;56850;51.984;5.088;2023-04-03T05:17:37;6.47;;;2.22;;
69627;SDS011;56850;51.984;5.088;2023-04-03T05:20:07;7.10;;;2.10;;
69627;SDS011;56850;51.984;5.088;2023-04-03T05:22:35;5.70;;;2.50;;
69627;SDS011;56850;51.984;5.088;2023-04-03T05:25:06;3.58;;;2.25;;
69627;SDS011;56850;51.984;5.088;2023-04-03T05:27:34;6.55;;;2.25;;
69627;SDS011;56850;51.984;5.088;2023-04-03T05:30:02;6.88;;;2.67;;
69627;SDS011;56850;51.984;5.088;2023-04-03T05:32:32;7.47;;;2.13;;
69627;SDS011;56850;51.984;5.088;2023-04-03T05:35:20;4.15;;;2.17;;
69627;SDS011;56850;51.984;5.088;2023-04-03T05:37:50;6.75;;;2.22;;
69627;SDS011;56850;51.984;5.088;2023-04-03T05:40:17;6.47;;;2.33;;
69627;SDS011;56850;51.984;5.088;2023-04-03T05:42:48;7.85;;;2.13;;
69627;SDS011;56850;51.984;5.088;2023-04-03T05:45:17;4.13;;;2.53;;
69627;SDS011;56850;51.984;5.088;2023-04-03T05:47:45;9.32;;;3.10;;
69627;SDS011;56850;51.984;5.088;2023-04-03T05:50:12;5.70;;;2.55;;
69627;SDS011;56850;51.984;5.088;2023-04-03T05:52:40;5.25;;;2.38;;
69627;SDS011;56850;51.984;5.088;2023-04-03T05:55:11;3.72;;;2.00;;
69627;SDS011;56850;51.984;5.088;2023-04-03T05:57:38;6.70;;;2.90;;
69627;SDS011;56850;51.984;5.088;2023-04-03T06:00:06;6.68;;;2.20;;
69627;SDS011;56850;51.984;5.088;2023-04-03T06:02:46;6.97;;;2.47;;
69627;SDS011;56850;51.984;5.088;2023-04-03T06:05:18;5.00;;;2.33;;
69627;SDS011;56850;51.984;5.088;2023-04-03T06:07:45;3.42;;;2.17;;
69627;SDS011;56850;51.984;5.088;2023-04-03T06:10:12;4.43;;;2.27;;
69627;SDS011;56850;51.984;5.088;2023-04-03T06:12:42;4.32;;;2.20;;
69627;SDS011;56850;51.984;5.088;2023-04-03T06:15:09;4.95;;;2.28;;
69627;SDS011;56850;51.984;5.088;2023-04-03T06:17:38;3.42;;;2.13;;
69627;SDS011;56850;51.984;5.088;2023-04-03T06:20:07;7.25;;;2.58;;
69627;SDS011;56850;51.984;5.088;2023-04-03T06:22:34;8.43;;;2.63;;
69627;SDS011;56850;51.984;5.088;2023-04-03T06:25:01;21.48;;;2.78;;
69627;SDS011;56850;51.984;5.088;2023-04-03T06:27:28;11.90;;;3.00;;
69627;SDS011;56850;51.984;5.088;2023-04-03T06:29:55;6.72;;;2.80;;
69627;SDS011;56850;51.984;5.088;2023-04-03T06:32:22;6.07;;;2.75;;
69627;SDS011;56850;51.984;5.088;2023-04-03T06:34:49;4.13;;;2.33;;
69627;SDS011;56850;51.984;5.088;2023-04-03T06:37:17;5.28;;;1.88;;
69627;SDS011;56850;51.984;5.088;2023-04-03T06:39:46;5.47;;;2.70;;
69627;SDS011;56850;51.984;5.088;2023-04-03T06:42:13;6.53;;;2.40;;
69627;SDS011;56850;51.984;5.088;2023-04-03T06:44:50;5.95;;;2.50;;
69627;SDS011;56850;51.984;5.088;2023-04-03T06:47:17;6.53;;;2.30;;
69627;SDS011;56850;51.984;5.088;2023-04-03T06:49:45;5.88;;;2.15;;
69627;SDS011;56850;51.984;5.088;2023-04-03T06:52:13;5.50;;;2.50;;
69627;SDS011;56850;51.984;5.088;2023-04-03T06:54:40;5.13;;;2.22;;
69627;SDS011;56850;51.984;5.088;2023-04-03T06:57:07;6.70;;;2.47;;
69627;SDS011;56850;51.984;5.088;2023-04-03T06:59:34;8.33;;;2.77;;
69627;SDS011;56850;51.984;5.088;2023-04-03T07:02:02;5.22;;;2.30;;
69627;SDS011;56850;51.984;5.088;2023-04-03T07:04:30;5.82;;;2.45;;
69627;SDS011;56850;51.984;5.088;2023-04-03T07:06:57;6.45;;;2.85;;
69627;SDS011;56850;51.984;5.088;2023-04-03T07:09:23;5.85;;;2.67;;
69627;SDS011;56850;51.984;5.088;2023-04-03T07:11:51;3.20;;;2.00;;
69627;SDS011;56850;51.984;5.088;2023-04-03T07:14:17;6.25;;;2.30;;
69627;SDS011;56850;51.984;5.088;2023-04-03T07:16:44;5.10;;;2.20;;
69627;SDS011;56850;51.984;5.088;2023-04-03T07:19:11;5.70;;;2.42;;
69627;SDS011;56850;51.984;5.088;2023-04-03T07:21:38;7.25;;;2.58;;
69627;SDS011;56850;51.984;5.088;2023-04-03T07:24:05;5.57;;;1.90;;
69627;SDS011;56850;51.984;5.088;2023-04-03T07:26:35;5.72;;;2.28;;
69627;SDS011;56850;51.984;5.088;2023-04-03T07:29:02;7.43;;;2.67;;
69627;SDS011;56850;51.984;5.088;2023-04-03T07:31:29;10.73;;;2.63;;
69627;SDS011;56850;51.984;5.088;2023-04-03T07:33:56;8.45;;;2.20;;
69627;SDS011;56850;51.984;5.088;2023-04-03T07:36:23;5.47;;;1.70;;
69627;SDS011;56850;51.984;5.088;2023-04-03T07:38:50;4.82;;;2.17;;
69627;SDS011;56850;51.984;5.088;2023-04-03T07:41:18;4.45;;;2.17;;
69627;SDS011;56850;51.984;5.088;2023-04-03T07:43:48;6.00;;;2.00;;
69627;SDS011;56850;51.984;5.088;2023-04-03T07:46:16;6.45;;;2.53;;
69627;SDS011;56850;51.984;5.088;2023-04-03T07:48:44;7.17;;;2.20;;
69627;SDS011;56850;51.984;5.088;2023-04-03T07:51:11;5.90;;;2.10;;
69627;SDS011;56850;51.984;5.088;2023-04-03T07:53:39;5.97;;;2.10;;
69627;SDS011;56850;51.984;5.088;2023-04-03T07:56:06;5.28;;;2.25;;
69627;SDS011;56850;51.984;5.088;2023-04-03T07:58:34;3.95;;;2.15;;
69627;SDS011;56850;51.984;5.088;2023-04-03T08:01:01;4.80;;;2.50;;
69627;SDS011;56850;51.984;5.088;2023-04-03T08:03:27;5.85;;;1.92;;
69627;SDS011;56850;51.984;5.088;2023-04-03T08:05:55;3.88;;;2.50;;
69627;SDS011;56850;51.984;5.088;2023-04-03T08:08:30;8.65;;;2.22;;
69627;SDS011;56850;51.984;5.088;2023-04-03T08:10:59;6.95;;;2.47;;
69627;SDS011;56850;51.984;5.088;2023-04-03T08:13:29;4.33;;;1.80;;
69627;SDS011;56850;51.984;5.088;2023-04-03T08:15:57;5.72;;;2.03;;
69627;SDS011;56850;51.984;5.088;2023-04-03T08:18:25;5.57;;;2.30;;
69627;SDS011;56850;51.984;5.088;2023-04-03T08:20:53;4.10;;;1.92;;
69627;SDS011;56850;51.984;5.088;2023-04-03T08:23:19;6.38;;;2.10;;
69627;SDS011;56850;51.984;5.088;2023-04-03T08:25:47;3.83;;;1.80;;
69627;SDS011;56850;51.984;5.088;2023-04-03T08:28:14;4.30;;;1.98;;
69627;SDS011;56850;51.984;5.088;2023-04-03T08:30:41;5.03;;;1.70;;
69627;SDS011;56850;51.984;5.088;2023-04-03T08:33:09;5.15;;;1.67;;
69627;SDS011;56850;51.984;5.088;2023-04-03T08:35:39;3.90;;;1.90;;
69627;SDS011;56850;51.984;5.088;2023-04-03T08:38:08;4.77;;;1.97;;
69627;SDS011;56850;51.984;5.088;2023-04-03T08:40:36;6.28;;;1.88;;
69627;SDS011;56850;51.984;5.088;2023-04-03T08:43:21;5.38;;;1.67;;
69627;SDS011;56850;51.984;5.088;2023-04-03T08:46:01;6.00;;;1.90;;
69627;SDS011;56850;51.984;5.088;2023-04-03T08:48:33;4.65;;;1.58;;
69627;SDS011;56850;51.984;5.088;2023-04-03T08:51:09;4.43;;;1.60;;
69627;SDS011;56850;51.984;5.088;2023-04-03T08:53:46;2.90;;;1.70;;
69627;SDS011;56850;51.984;5.088;2023-04-03T08:56:22;4.28;;;1.70;;
69627;SDS011;56850;51.984;5.088;2023-04-03T08:58:52;3.30;;;1.52;;
69627;SDS011;56850;51.984;5.088;2023-04-03T09:01:24;6.10;;;1.85;;
69627;SDS011;56850;51.984;5.088;2023-04-03T09:03:56;4.67;;;1.30;;
69627;SDS011;56850;51.984;5.088;2023-04-03T09:06:26;4.53;;;1.30;;
69627;SDS011;56850;51.984;5.088;2023-04-03T09:16:54;3.73;;;1.30;;
69627;SDS011;56850;51.984;5.088;2023-04-03T09:19:41;6.05;;;1.38;;
69627;SDS011;56850;51.984;5.088;2023-04-03T09:25:13;3.47;;;1.27;;
69627;SDS011;56850;51.984;5.088;2023-04-03T09:27:44;1.80;;;1.27;;
69627;SDS011;56850;51.984;5.088;2023-04-03T09:30:12;3.13;;;1.40;;
69627;SDS011;56850;51.984;5.088;2023-04-03T09:32:41;2.75;;;1.10;;
69627;SDS011;56850;51.984;5.088;2023-04-03T09:38:13;2.42;;;1.20;;
69627;SDS011;56850;51.984;5.088;2023-04-03T09:40:45;2.25;;;1.15;;
69627;SDS011;56850;51.984;5.088;2023-04-03T09:45:50;4.03;;;1.20;;
69627;SDS011;56850;51.984;5.088;2023-04-03T09:48:22;2.30;;;1.33;;
69627;SDS011;56850;51.984;5.088;2023-04-03T09:58:50;1.60;;;1.25;;
69627;SDS011;56850;51.984;5.088;2023-04-03T10:06:33;2.25;;;1.20;;
69627;SDS011;56850;51.984;5.088;2023-04-03T10:12:11;2.55;;;1.10;;
69627;SDS011;56850;51.984;5.088;2023-04-03T10:14:53;3.05;;;1.20;;
69627;SDS011;56850;51.984;5.088;2023-04-03T10:25:52;1.27;;;1.10;;
69627;SDS011;56850;51.984;5.088;2023-04-03T10:28:27;1.88;;;1.17;;
69627;SDS011;56850;51.984;5.088;2023-04-03T10:36:46;1.40;;;0.97;;
69627;SDS011;56850;51.984;5.088;2023-04-03T10:39:36;1.35;;;1.10;;
69627;SDS011;56850;51.984;5.088;2023-04-03T10:45:03;1.20;;;1.10;;
69627;SDS011;56850;51.984;5.088;2023-04-03T10:53:31;0.93;;;0.68;;
69627;SDS011;56850;51.984;5.088;2023-04-03T10:59:13;1.08;;;0.93;;
69627;SDS011;56850;51.984;5.088;2023-04-03T11:01:26;2.00;;;0.95;;
69627;SDS011;56850;51.984;5.088;2023-04-03T11:03:59;2.83;;;0.90;;
69627;SDS011;56850;51.984;5.088;2023-04-03T11:06:32;1.67;;;1.30;;
69627;SDS011;56850;51.984;5.088;2023-04-03T11:09:26;2.03;;;1.20;;
69627;SDS011;56850;51.984;5.088;2023-04-03T11:12:01;1.60;;;1.10;;
69627;SDS011;56850;51.984;5.088;2023-04-03T11:14:40;1.67;;;1.38;;
69627;SDS011;56850;51.984;5.088;2023-04-03T11:17:11;1.60;;;1.07;;
69627;SDS011;56850;51.984;5.088;2023-04-03T11:19:49;1.58;;;0.90;;
69627;SDS011;56850;51.984;5.088;2023-04-03T11:22:30;1.55;;;1.08;;
69627;SDS011;56850;51.984;5.088;2023-04-03T11:27:41;1.20;;;1.00;;
69627;SDS011;56850;51.984;5.088;2023-04-03T11:30:21;1.00;;;0.90;;
69627;SDS011;56850;51.984;5.088;2023-04-03T11:35:20;2.10;;;1.10;;
69627;SDS011;56850;51.984;5.088;2023-04-03T11:37:49;2.90;;;1.38;;
69627;SDS011;56850;51.984;5.088;2023-04-03T11:40:25;1.90;;;1.30;;
69627;SDS011;56850;51.984;5.088;2023-04-03T11:51:02;1.70;;;1.10;;
69627;SDS011;56850;51.984;5.088;2023-04-03T11:53:39;2.55;;;1.48;;
69627;SDS011;56850;51.984;5.088;2023-04-03T12:01:44;2.47;;;1.60;;
69627;SDS011;56850;51.984;5.088;2023-04-03T12:04:15;2.28;;;1.38;;
69627;SDS011;56850;51.984;5.088;2023-04-03T12:09:24;2.30;;;1.10;;
69627;SDS011;56850;51.984;5.088;2023-04-03T12:11:54;2.58;;;1.20;;
69627;SDS011;56850;51.984;5.088;2023-04-03T12:14:22;2.78;;;1.40;;
69627;SDS011;56850;51.984;5.088;2023-04-03T12:16:54;2.28;;;1.60;;
69627;SDS011;56850;51.984;5.088;2023-04-03T12:22:08;2.00;;;1.20;;
69627;SDS011;56850;51.984;5.088;2023-04-03T12:24:39;3.97;;;1.40;;
69627;SDS011;56850;51.984;5.088;2023-04-03T12:27:15;2.25;;;1.45;;
69627;SDS011;56850;51.984;5.088;2023-04-03T12:30:04;2.55;;;1.40;;
69627;SDS011;56850;51.984;5.088;2023-04-03T12:36:07;3.03;;;1.40;;
69627;SDS011;56850;51.984;5.088;2023-04-03T12:50:16;2.90;;;1.27;;
69627;SDS011;56850;51.984;5.088;2023-04-03T12:53:12;3.42;;;1.33;;
69627;SDS011;56850;51.984;5.088;2023-04-03T12:55:40;2.42;;;1.20;;
69627;SDS011;56850;51.984;5.088;2023-04-03T12:58:14;3.75;;;1.55;;
69627;SDS011;56850;51.984;5.088;2023-04-03T13:00:41;2.63;;;1.33;;
69627;SDS011;56850;51.984;5.088;2023-04-03T13:03:19;4.10;;;1.20;;
69627;SDS011;56850;51.984;5.088;2023-04-03T13:05:50;2.33;;;1.35;;
69627;SDS011;56850;51.984;5.088;2023-04-03T13:08:17;3.13;;;1.60;;
69627;SDS011;56850;51.984;5.088;2023-04-03T13:10:49;1.63;;;1.10;;
69627;SDS011;56850;51.984;5.088;2023-04-03T13:13:22;2.10;;;1.58;;
69627;SDS011;56850;51.984;5.088;2023-04-03T13:15:49;1.07;;;0.93;;
69627;SDS011;56850;51.984;5.088;2023-04-03T13:18:21;2.58;;;1.30;;
69627;SDS011;56850;51.984;5.088;2023-04-03T13:23:29;4.53;;;1.45;;
69627;SDS011;56850;51.984;5.088;2023-04-03T13:25:58;2.30;;;1.50;;
69627;SDS011;56850;51.984;5.088;2023-04-03T13:28:30;6.50;;;1.37;;
69627;SDS011;56850;51.984;5.088;2023-04-03T13:31:03;1.90;;;1.17;;
69627;SDS011;56850;51.984;5.088;2023-04-03T13:33:34;3.47;;;1.63;;
69627;SDS011;56850;51.984;5.088;2023-04-03T13:36:07;2.50;;;1.27;;
69627;SDS011;56850;51.984;5.088;2023-04-03T13:39:05;3.78;;;1.30;;
69627;SDS011;56850;51.984;5.088;2023-04-03T13:41:48;2.83;;;1.20;;
69627;SDS011;56850;51.984;5.088;2023-04-03T13:46:53;3.28;;;1.50;;
69627;SDS011;56850;51.984;5.088;2023-04-03T13:49:36;2.85;;;1.73;;
69627;SDS011;56850;51.984;5.088;2023-04-03T13:55:25;2.07;;;1.13;;
69627;SDS011;56850;51.984;5.088;2023-04-03T14:02:56;2.88;;;1.58;;
69627;SDS011;56850;51.984;5.088;2023-04-03T14:05:24;2.13;;;1.50;;
69627;SDS011;56850;51.984;5.088;2023-04-03T14:07:53;5.03;;;1.70;;
69627;SDS011;56850;51.984;5.088;2023-04-03T14:10:21;4.30;;;1.83;;
69627;SDS011;56850;51.984;5.088;2023-04-03T14:12:48;2.95;;;1.70;;
69627;SDS011;56850;51.984;5.088;2023-04-03T14:15:23;2.22;;;1.70;;
69627;SDS011;56850;51.984;5.088;2023-04-03T14:17:51;2.88;;;1.55;;
69627;SDS011;56850;51.984;5.088;2023-04-03T14:20:20;2.63;;;1.33;;
69627;SDS011;56850;51.984;5.088;2023-04-03T14:22:49;2.70;;;1.50;;
69627;SDS011;56850;51.984;5.088;2023-04-03T14:25:18;2.75;;;1.98;;
69627;SDS011;56850;51.984;5.088;2023-04-03T14:27:47;6.20;;;1.23;;
69627;SDS011;56850;51.984;5.088;2023-04-03T14:30:18;2.13;;;1.38;;
69627;SDS011;56850;51.984;5.088;2023-04-03T14:32:46;2.20;;;1.20;;
69627;SDS011;56850;51.984;5.088;2023-04-03T14:35:14;5.28;;;3.17;;
69627;SDS011;56850;51.984;5.088;2023-04-03T14:37:42;2.60;;;1.40;;
69627;SDS011;56850;51.984;5.088;2023-04-03T14:40:11;2.00;;;1.40;;
69627;SDS011;56850;51.984;5.088;2023-04-03T14:42:41;3.65;;;1.60;;
69627;SDS011;56850;51.984;5.088;2023-04-03T14:45:09;2.10;;;1.20;;
69627;SDS011;56850;51.984;5.088;2023-04-03T14:47:40;5.07;;;1.50;;
69627;SDS011;56850;51.984;5.088;2023-04-03T14:50:15;2.15;;;1.27;;
69627;SDS011;56850;51.984;5.088;2023-04-03T14:52:44;3.97;;;1.65;;
69627;SDS011;56850;51.984;5.088;2023-04-03T14:55:12;2.70;;;1.70;;
69627;SDS011;56850;51.984;5.088;2023-04-03T14:57:48;1.90;;;1.50;;
69627;SDS011;56850;51.984;5.088;2023-04-03T15:00:20;2.35;;;1.33;;
69627;SDS011;56850;51.984;5.088;2023-04-03T15:02:48;3.03;;;1.52;;
69627;SDS011;56850;51.984;5.088;2023-04-03T15:05:16;2.25;;;1.55;;
69627;SDS011;56850;51.984;5.088;2023-04-03T15:07:48;2.42;;;1.52;;
69627;SDS011;56850;51.984;5.088;2023-04-03T15:10:20;3.93;;;1.90;;
69627;SDS011;56850;51.984;5.088;2023-04-03T15:12:50;4.65;;;1.70;;
69627;SDS011;56850;51.984;5.088;2023-04-03T15:15:19;3.30;;;1.77;;
69627;SDS011;56850;51.984;5.088;2023-04-03T15:17:47;3.22;;;1.77;;
69627;SDS011;56850;51.984;5.088;2023-04-03T15:20:21;3.60;;;1.77;;
69627;SDS011;56850;51.984;5.088;2023-04-03T15:22:51;3.67;;;1.43;;
69627;SDS011;56850;51.984;5.088;2023-04-03T15:25:17;3.85;;;1.70;;
69627;SDS011;56850;51.984;5.088;2023-04-03T15:27:45;3.00;;;1.48;;
69627;SDS011;56850;51.984;5.088;2023-04-03T15:30:16;3.35;;;1.30;;
69627;SDS011;56850;51.984;5.088;2023-04-03T15:32:44;2.03;;;1.50;;
69627;SDS011;56850;51.984;5.088;2023-04-03T15:35:12;4.27;;;1.20;;
69627;SDS011;56850;51.984;5.088;2023-04-03T15:37:39;2.15;;;1.40;;
69627;SDS011;56850;51.984;5.088;2023-04-03T15:40:06;3.17;;;1.52;;
69627;SDS011;56850;51.984;5.088;2023-04-03T15:42:33;2.67;;;1.35;;
69627;SDS011;56850;51.984;5.088;2023-04-03T15:45:01;3.20;;;1.40;;
69627;SDS011;56850;51.984;5.088;2023-04-03T15:47:28;3.43;;;1.33;;
69627;SDS011;56850;51.984;5.088;2023-04-03T15:49:56;2.78;;;1.08;;
69627;SDS011;56850;51.984;5.088;2023-04-03T15:52:23;2.83;;;1.40;;
69627;SDS011;56850;51.984;5.088;2023-04-03T15:54:50;3.08;;;1.58;;
69627;SDS011;56850;51.984;5.088;2023-04-03T15:57:17;3.72;;;1.50;;
69627;SDS011;56850;51.984;5.088;2023-04-03T15:59:44;5.33;;;1.40;;
69627;SDS011;56850;51.984;5.088;2023-04-03T16:02:11;6.78;;;1.88;;
69627;SDS011;56850;51.984;5.088;2023-04-03T16:04:40;5.22;;;1.70;;
69627;SDS011;56850;51.984;5.088;2023-04-03T16:07:07;5.05;;;1.58;;
69627;SDS011;56850;51.984;5.088;2023-04-03T16:09:34;4.82;;;1.70;;
69627;SDS011;56850;51.984;5.088;2023-04-03T16:12:01;2.73;;;1.77;;
69627;SDS011;56850;51.984;5.088;2023-04-03T16:14:29;4.50;;;1.58;;
69627;SDS011;56850;51.984;5.088;2023-04-03T16:16:57;3.47;;;1.70;;
69627;SDS011;56850;51.984;5.088;2023-04-03T16:19:25;2.50;;;1.60;;
69627;SDS011;56850;51.984;5.088;2023-04-03T16:21:53;5.55;;;2.08;;
69627;SDS011;56850;51.984;5.088;2023-04-03T16:24:21;3.33;;;1.70;;
69627;SDS011;56850;51.984;5.088;2023-04-03T16:26:48;5.25;;;2.35;;
69627;SDS011;56850;51.984;5.088;2023-04-03T16:29:15;4.22;;;1.63;;
69627;SDS011;56850;51.984;5.088;2023-04-03T16:31:42;3.22;;;1.60;;
69627;SDS011;56850;51.984;5.088;2023-04-03T16:34:09;6.63;;;1.77;;
69627;SDS011;56850;51.984;5.088;2023-04-03T16:36:37;4.67;;;1.90;;
69627;SDS011;56850;51.984;5.088;2023-04-03T16:39:04;4.25;;;1.85;;
69627;SDS011;56850;51.984;5.088;2023-04-03T16:41:31;3.88;;;1.90;;
69627;SDS011;56850;51.984;5.088;2023-04-03T16:43:58;4.65;;;1.95;;
69627;SDS011;56850;51.984;5.088;2023-04-03T16:46:25;7.30;;;2.10;;
69627;SDS011;56850;51.984;5.088;2023-04-03T16:48:53;3.67;;;1.43;;
69627;SDS011;56850;51.984;5.088;2023-04-03T16:51:20;5.78;;;1.70;;
69627;SDS011;56850;51.984;5.088;2023-04-03T16:53:46;3.63;;;1.85;;
69627;SDS011;56850;51.984;5.088;2023-04-03T16:56:13;3.33;;;1.90;;
69627;SDS011;56850;51.984;5.088;2023-04-03T16:58:40;5.57;;;2.20;;
69627;SDS011;56850;51.984;5.088;2023-04-03T17:01:08;3.90;;;1.87;;
69627;SDS011;56850;51.984;5.088;2023-04-03T17:03:37;3.35;;;1.90;;